Time;durP1;ratioP1;P1;durP2;ratioP2;P2;SDS_P1;SDS_P2;PMS_P1;PMS_P2;Temp;Humidity;BMP_temperature;BMP_pressure;BME280_temperature;BME280_humidity;BME280_pressure;Samples;Min_cycle;Max_cycle;Signal;HPM_P1;HPM_P2
2024/01/02 00:01:23;;;;;;;0.20;0.00;;;;;;;;;;5012191;28;20056;-85
2024/01/02 00:03:52;;;;;;;0.20;0.10;;;;;;;;;;5013906;28;20050;-84
2024/01/02 00:06:18;;;;;;;0.20;0.10;;;;;;;;;;5017896;28;20113;-84
2024/01/02 00:08:44;;;;;;;0.20;0.08;;;;;;;;;;5033301;28;20033;-84
2024/01/02 00:11:10;;;;;;;0.20;0.00;;;;;;;;;;5014457;28;20040;-84
2024/01/02 00:13:36;;;;;;;0.20;0.08;;;;;;;;;;5031847;28;20083;-82
2024/01/02 00:16:03;;;;;;;1.35;0.40;;;;;;;;;;5029138;28;20188;-83
2024/01/02 00:18:29;;;;;;;0.20;0.17;;;;;;;;;;5030775;28;20041;-83
2024/01/02 00:20:56;;;;;;;0.20;0.10;;;;;;;;;;5022535;28;20072;-84
2024/01/02 00:23:22;;;;;;;0.20;0.00;;;;;;;;;;5014069;28;20100;-86
2024/01/02 00:25:50;;;;;;;0.45;0.20;;;;;;;;;;5020735;28;20055;-82
2024/01/02 00:28:18;;;;;;;0.20;0.00;;;;;;;;;;5033874;28;20033;-86
2024/01/02 00:30:44;;;;;;;0.20;0.10;;;;;;;;;;5035491;28;20045;-83
2024/01/02 00:33:13;;;;;;;0.20;0.10;;;;;;;;;;5018368;28;20076;-82
2024/01/02 00:35:39;;;;;;;0.20;0.10;;;;;;;;;;5038170;28;20036;-85
2024/01/02 00:38:09;;;;;;;0.20;0.00;;;;;;;;;;5024052;28;20103;-84
2024/01/02 00:40:44;;;;;;;0.20;0.08;;;;;;;;;;5035426;28;20048;-86
2024/01/02 00:43:13;;;;;;;0.47;0.47;;;;;;;;;;5012763;28;20124;-85
2024/01/02 00:45:39;;;;;;;0.25;0.05;;;;;;;;;;5017645;28;20036;-83
2024/01/02 00:48:05;;;;;;;0.20;0.00;;;;;;;;;;5024033;28;20037;-85
2024/01/02 00:50:31;;;;;;;0.20;0.10;;;;;;;;;;5019319;28;20451;-84
2024/01/02 00:53:16;;;;;;;0.20;0.05;;;;;;;;;;5023142;28;20045;-84
2024/01/02 00:55:43;;;;;;;0.20;0.10;;;;;;;;;;5036916;28;20052;-83
2024/01/02 01:03:56;;;;;;;0.20;0.00;;;;;;;;;;5037257;28;20544;-84
2024/01/02 01:06:25;;;;;;;0.20;0.10;;;;;;;;;;5039215;28;20044;-84
2024/01/02 01:08:51;;;;;;;0.20;0.10;;;;;;;;;;5048704;28;20037;-83
2024/01/02 01:11:24;;;;;;;0.20;0.10;;;;;;;;;;5016999;28;20044;-83
2024/01/02 01:13:51;;;;;;;0.20;0.10;;;;;;;;;;5022425;28;20045;-86
2024/01/02 01:16:27;;;;;;;0.20;0.00;;;;;;;;;;5020365;28;20644;-83
2024/01/02 01:18:53;;;;;;;0.20;0.00;;;;;;;;;;5007991;28;20133;-82
2024/01/02 01:21:19;;;;;;;0.20;0.10;;;;;;;;;;5050325;28;20033;-81
2024/01/02 01:23:45;;;;;;;0.20;0.00;;;;;;;;;;5048093;28;20516;-83
2024/01/02 01:26:11;;;;;;;0.20;0.03;;;;;;;;;;5028850;28;20041;-85
2024/01/02 01:28:37;;;;;;;0.20;0.10;;;;;;;;;;5030712;28;20610;-86
2024/01/02 01:31:06;;;;;;;0.20;0.10;;;;;;;;;;5023578;28;20052;-85
2024/01/02 01:33:34;;;;;;;0.20;0.00;;;;;;;;;;5017318;28;20126;-83
2024/01/02 01:36:10;;;;;;;0.20;0.10;;;;;;;;;;5032008;28;20037;-85
2024/01/02 01:38:42;;;;;;;0.20;0.10;;;;;;;;;;5014611;28;20485;-83
2024/01/02 01:41:14;;;;;;;0.20;0.00;;;;;;;;;;5016275;28;20748;-83
2024/01/02 01:43:43;;;;;;;0.20;0.10;;;;;;;;;;5036027;28;20544;-83
2024/01/02 01:46:09;;;;;;;0.20;0.00;;;;;;;;;;5020498;28;20039;-82
2024/01/02 01:48:41;;;;;;;0.20;0.10;;;;;;;;;;5022992;28;20041;-84
2024/01/02 01:51:10;;;;;;;0.20;0.10;;;;;;;;;;5019285;28;20309;-84
2024/01/02 01:53:39;;;;;;;0.20;0.10;;;;;;;;;;5020922;28;20100;-84
2024/01/02 01:56:08;;;;;;;0.20;0.00;;;;;;;;;;5011246;28;20046;-83
2024/01/02 01:58:34;;;;;;;0.20;0.00;;;;;;;;;;5031667;28;20037;-85
2024/01/02 02:01:00;;;;;;;0.20;0.10;;;;;;;;;;5032551;28;20068;-84
2024/01/02 02:03:27;;;;;;;0.20;0.10;;;;;;;;;;5028113;28;20029;-84
2024/01/02 02:05:53;;;;;;;0.20;0.10;;;;;;;;;;5019206;28;20055;-83
2024/01/02 02:08:19;;;;;;;0.20;0.10;;;;;;;;;;5021647;28;20045;-83
2024/01/02 02:10:45;;;;;;;0.20;0.03;;;;;;;;;;5024466;28;20041;-82
2024/01/02 02:13:25;;;;;;;0.20;0.10;;;;;;;;;;5005649;28;20033;-87
2024/01/02 02:15:52;;;;;;;0.20;0.10;;;;;;;;;;5016916;28;20482;-83
2024/01/02 02:18:18;;;;;;;0.20;0.00;;;;;;;;;;5015811;28;20035;-86
2024/01/02 02:20:45;;;;;;;0.20;0.10;;;;;;;;;;5047722;28;20045;-85
2024/01/02 02:23:17;;;;;;;0.20;0.10;;;;;;;;;;5025931;28;20040;-84
2024/01/02 02:25:43;;;;;;;0.20;0.00;;;;;;;;;;5008721;28;20033;-84
2024/01/02 02:28:10;;;;;;;0.20;0.10;;;;;;;;;;5009070;28;20145;-86
2024/01/02 02:30:39;;;;;;;0.20;0.10;;;;;;;;;;5019731;28;20044;-84
2024/01/02 02:33:05;;;;;;;0.20;0.10;;;;;;;;;;5033546;28;20050;-87
2024/01/02 02:35:33;;;;;;;0.20;0.00;;;;;;;;;;5051927;28;20056;-85
2024/01/02 02:38:02;;;;;;;0.20;0.10;;;;;;;;;;5022002;28;20800;-86
2024/01/02 02:40:28;;;;;;;0.20;0.10;;;;;;;;;;5031167;28;20032;-83
2024/01/02 02:42:55;;;;;;;0.20;0.10;;;;;;;;;;5032183;28;20053;-84
2024/01/02 02:45:21;;;;;;;0.20;0.10;;;;;;;;;;5020983;28;20099;-84
2024/01/02 02:47:47;;;;;;;0.20;0.10;;;;;;;;;;5014641;28;20050;-83
2024/01/02 02:50:13;;;;;;;0.20;0.10;;;;;;;;;;5033629;28;20037;-84
2024/01/02 02:52:39;;;;;;;0.20;0.00;;;;;;;;;;5035051;28;20042;-83
2024/01/02 02:55:11;;;;;;;0.20;0.10;;;;;;;;;;5011370;28;20056;-85
2024/01/02 02:57:37;;;;;;;0.20;0.10;;;;;;;;;;5013595;28;20055;-85
2024/01/02 03:00:06;;;;;;;0.22;0.22;;;;;;;;;;5016400;28;20037;-84
2024/01/02 03:02:33;;;;;;;0.20;0.10;;;;;;;;;;5016638;28;20040;-85
2024/01/02 03:04:59;;;;;;;0.20;0.10;;;;;;;;;;5012420;28;20517;-83
2024/01/02 03:07:25;;;;;;;0.20;0.10;;;;;;;;;;5030047;28;20045;-85
2024/01/02 03:09:51;;;;;;;0.20;0.10;;;;;;;;;;5026598;28;20037;-85
2024/01/02 03:12:20;;;;;;;0.20;0.10;;;;;;;;;;5007891;28;20033;-86
2024/01/02 03:14:47;;;;;;;0.20;0.10;;;;;;;;;;5036811;28;20061;-85
2024/01/02 03:17:13;;;;;;;0.20;0.10;;;;;;;;;;5011684;28;20067;-85
2024/01/02 03:19:40;;;;;;;0.20;0.10;;;;;;;;;;5031349;28;20457;-84
2024/01/02 03:22:06;;;;;;;0.20;0.00;;;;;;;;;;5020122;28;20548;-84
2024/01/02 03:24:32;;;;;;;0.20;0.10;;;;;;;;;;5036481;28;20064;-85
2024/01/02 03:26:58;;;;;;;0.20;0.10;;;;;;;;;;5016031;28;20041;-87
2024/01/02 03:29:26;;;;;;;0.20;0.00;;;;;;;;;;5012213;28;20045;-86
2024/01/02 03:31:55;;;;;;;0.20;0.10;;;;;;;;;;5029586;28;20024;-85
2024/01/02 03:34:27;;;;;;;0.20;0.10;;;;;;;;;;5007159;28;20033;-86
2024/01/02 03:36:53;;;;;;;0.20;0.10;;;;;;;;;;5011885;28;20045;-84
2024/01/02 03:39:19;;;;;;;0.20;0.10;;;;;;;;;;5017421;28;20033;-85
2024/01/02 03:41:45;;;;;;;0.20;0.10;;;;;;;;;;5030314;28;20455;-87
2024/01/02 03:44:11;;;;;;;0.20;0.10;;;;;;;;;;5013383;28;20052;-87
2024/01/02 03:46:39;;;;;;;0.20;0.00;;;;;;;;;;5017049;28;20102;-86
2024/01/02 03:49:05;;;;;;;0.20;0.00;;;;;;;;;;5031913;28;20044;-85
2024/01/02 03:51:32;;;;;;;0.20;0.10;;;;;;;;;;5015962;28;20520;-84
2024/01/02 03:53:58;;;;;;;0.20;0.10;;;;;;;;;;5028667;28;20037;-84
2024/01/02 03:56:24;;;;;;;0.20;0.00;;;;;;;;;;5026224;28;20047;-84
2024/01/02 03:58:50;;;;;;;0.20;0.10;;;;;;;;;;5025707;28;20032;-86
2024/01/02 04:01:16;;;;;;;0.20;0.10;;;;;;;;;;5019251;28;20041;-86
2024/01/02 04:03:42;;;;;;;0.20;0.00;;;;;;;;;;5027532;28;20115;-86
2024/01/02 04:06:08;;;;;;;0.20;0.10;;;;;;;;;;5016845;28;20045;-87
2024/01/02 04:08:36;;;;;;;0.20;0.10;;;;;;;;;;5013497;28;20041;-84
2024/01/02 04:11:05;;;;;;;0.20;0.10;;;;;;;;;;5015907;28;20053;-84
2024/01/02 04:13:31;;;;;;;0.20;0.00;;;;;;;;;;5021818;28;20501;-85
2024/01/02 04:15:58;;;;;;;0.20;0.00;;;;;;;;;;5027167;28;20064;-85
2024/01/02 04:18:24;;;;;;;0.20;0.10;;;;;;;;;;5015131;28;20050;-84
2024/01/02 04:20:50;;;;;;;0.20;0.10;;;;;;;;;;5007157;28;20074;-86
2024/01/02 04:23:16;;;;;;;0.20;0.03;;;;;;;;;;5013868;28;20041;-83
2024/01/02 04:25:42;;;;;;;0.20;0.10;;;;;;;;;;5011656;28;20102;-85
2024/01/02 04:28:08;;;;;;;0.20;0.10;;;;;;;;;;5031396;28;20048;-84
2024/01/02 04:30:42;;;;;;;0.20;0.00;;;;;;;;;;5016038;28;20033;-84
2024/01/02 04:33:08;;;;;;;0.20;0.00;;;;;;;;;;5014522;28;20041;-84
2024/01/02 04:35:40;;;;;;;0.20;0.10;;;;;;;;;;5016269;28;20043;-85
2024/01/02 04:38:06;;;;;;;0.20;0.10;;;;;;;;;;5012513;28;20298;-84
2024/01/02 04:40:32;;;;;;;0.20;0.00;;;;;;;;;;5014587;28;20037;-83
2024/01/02 04:42:58;;;;;;;0.20;0.10;;;;;;;;;;5014567;28;20503;-84
2024/01/02 04:45:24;;;;;;;0.20;0.03;;;;;;;;;;5012471;28;20041;-84
2024/01/02 04:47:50;;;;;;;0.20;0.00;;;;;;;;;;5017555;28;20041;-85
2024/01/02 04:50:23;;;;;;;0.20;0.00;;;;;;;;;;5026089;28;20043;-84
2024/01/02 04:52:49;;;;;;;0.20;0.00;;;;;;;;;;5006230;28;20025;-85
2024/01/02 04:55:15;;;;;;;0.20;0.00;;;;;;;;;;5013062;28;20656;-84
2024/01/02 04:57:41;;;;;;;0.30;0.20;;;;;;;;;;5018354;28;20061;-83
2024/01/02 05:00:08;;;;;;;0.20;0.00;;;;;;;;;;5012808;28;20067;-86
2024/01/02 05:02:34;;;;;;;0.20;0.00;;;;;;;;;;5008948;28;20040;-85
2024/01/02 05:05:00;;;;;;;0.20;0.10;;;;;;;;;;5017943;28;20045;-84
2024/01/02 05:07:26;;;;;;;0.20;0.10;;;;;;;;;;5012625;28;20045;-84
2024/01/02 05:09:52;;;;;;;0.20;0.10;;;;;;;;;;5009513;28;20045;-84
2024/01/02 05:12:18;;;;;;;0.20;0.00;;;;;;;;;;5014933;28;20090;-83
2024/01/02 05:14:44;;;;;;;0.20;0.10;;;;;;;;;;5028182;28;20033;-84
2024/01/02 05:17:10;;;;;;;0.20;0.00;;;;;;;;;;5011924;28;20037;-84
2024/01/02 05:19:37;;;;;;;0.20;0.00;;;;;;;;;;5043205;28;20033;-85
2024/01/02 05:22:03;;;;;;;0.20;0.00;;;;;;;;;;5015248;28;20051;-89
2024/01/02 05:24:30;;;;;;;0.20;0.10;;;;;;;;;;5028269;28;20029;-87
2024/01/02 05:26:56;;;;;;;0.20;0.00;;;;;;;;;;5012118;28;20044;-84
2024/01/02 05:29:22;;;;;;;0.20;0.10;;;;;;;;;;5013917;28;20029;-84
2024/01/02 05:31:48;;;;;;;0.20;0.20;;;;;;;;;;5029028;28;20037;-84
2024/01/02 05:34:15;;;;;;;0.20;0.00;;;;;;;;;;5030627;28;20406;-83
2024/01/02 05:36:43;;;;;;;0.20;0.10;;;;;;;;;;5034266;28;20033;-84
2024/01/02 05:39:09;;;;;;;0.20;0.00;;;;;;;;;;5015775;28;20145;-85
2024/01/02 05:41:35;;;;;;;0.20;0.00;;;;;;;;;;5017076;28;20036;-84
2024/01/02 05:44:07;;;;;;;0.20;0.10;;;;;;;;;;5019063;28;20041;-84
2024/01/02 05:46:34;;;;;;;0.20;0.00;;;;;;;;;;5016742;28;20071;-84
2024/01/02 05:49:00;;;;;;;0.20;0.00;;;;;;;;;;5017378;28;20051;-85
2024/01/02 05:51:26;;;;;;;0.20;0.05;;;;;;;;;;5016308;28;20072;-84
2024/01/02 05:53:52;;;;;;;0.20;0.00;;;;;;;;;;5037645;28;20037;-84
2024/01/02 05:56:18;;;;;;;0.20;0.00;;;;;;;;;;5020000;28;20052;-84
2024/01/02 05:58:44;;;;;;;0.20;0.10;;;;;;;;;;5035605;28;20099;-85
2024/01/02 06:01:10;;;;;;;0.20;0.00;;;;;;;;;;5009434;28;20044;-87
2024/01/02 06:03:37;;;;;;;0.20;0.10;;;;;;;;;;5014088;28;20033;-84
2024/01/02 06:06:03;;;;;;;0.20;0.00;;;;;;;;;;5027626;28;20095;-84
2024/01/02 06:08:32;;;;;;;0.20;0.00;;;;;;;;;;5016635;28;20038;-86
2024/01/02 06:10:58;;;;;;;0.20;0.00;;;;;;;;;;5023916;28;20068;-83
2024/01/02 06:13:24;;;;;;;0.20;0.10;;;;;;;;;;5028056;28;20108;-84
2024/01/02 06:15:55;;;;;;;0.20;0.10;;;;;;;;;;5027852;28;20073;-84
2024/01/02 06:18:21;;;;;;;0.20;0.00;;;;;;;;;;5029665;28;20037;-84
2024/01/02 06:20:50;;;;;;;0.20;0.00;;;;;;;;;;5034088;28;20045;-84
2024/01/02 06:23:17;;;;;;;0.20;0.00;;;;;;;;;;5015367;28;20041;-84
2024/01/02 06:25:43;;;;;;;0.20;0.10;;;;;;;;;;5030055;28;20037;-87
2024/01/02 06:28:12;;;;;;;0.20;0.10;;;;;;;;;;5018989;28;20037;-85
2024/01/02 06:30:38;;;;;;;0.20;0.10;;;;;;;;;;5015492;28;20064;-84
2024/01/02 06:33:04;;;;;;;0.20;0.05;;;;;;;;;;5029361;28;20476;-83
2024/01/02 06:35:31;;;;;;;0.20;0.00;;;;;;;;;;5014495;28;20452;-84
2024/01/02 06:37:57;;;;;;;0.20;0.10;;;;;;;;;;5044403;28;20044;-85
2024/01/02 06:40:23;;;;;;;0.20;0.10;;;;;;;;;;5033017;28;20277;-84
2024/01/02 06:42:49;;;;;;;0.20;0.08;;;;;;;;;;5012229;28;20037;-86
2024/01/02 06:45:24;;;;;;;0.20;0.10;;;;;;;;;;5013017;28;20040;-85
2024/01/02 06:47:50;;;;;;;0.20;0.03;;;;;;;;;;5011369;28;20040;-85
2024/01/02 06:50:17;;;;;;;0.20;0.00;;;;;;;;;;5014488;28;20045;-85
2024/01/02 06:52:43;;;;;;;0.20;0.10;;;;;;;;;;5029529;28;20051;-85
2024/01/02 06:55:12;;;;;;;0.20;0.10;;;;;;;;;;5010789;28;20108;-86
2024/01/02 06:57:41;;;;;;;0.20;0.00;;;;;;;;;;5009390;28;20045;-85
2024/01/02 07:00:08;;;;;;;0.20;0.05;;;;;;;;;;5008035;28;21511;-87
2024/01/02 07:02:34;;;;;;;0.20;0.10;;;;;;;;;;5024380;28;20073;-84
2024/01/02 07:05:00;;;;;;;0.20;0.10;;;;;;;;;;5030892;28;20083;-84
2024/01/02 07:07:26;;;;;;;0.20;0.00;;;;;;;;;;5008845;28;20074;-85
2024/01/02 07:09:52;;;;;;;0.20;0.00;;;;;;;;;;5027766;28;20063;-83
2024/01/02 07:12:18;;;;;;;0.20;0.10;;;;;;;;;;5012428;28;20038;-84
2024/01/02 07:14:47;;;;;;;0.20;0.00;;;;;;;;;;5015729;28;20029;-85
2024/01/02 07:17:18;;;;;;;0.20;0.00;;;;;;;;;;5029494;28;20029;-85
2024/01/02 07:19:44;;;;;;;0.20;0.00;;;;;;;;;;5029024;28;20067;-86
2024/01/02 07:22:10;;;;;;;0.20;0.10;;;;;;;;;;5028335;28;20485;-84
2024/01/02 07:24:36;;;;;;;0.20;0.10;;;;;;;;;;5027943;28;20041;-84
2024/01/02 07:27:02;;;;;;;0.20;0.10;;;;;;;;;;5018831;28;20041;-85
2024/01/02 07:29:28;;;;;;;0.20;0.10;;;;;;;;;;5014670;28;20741;-82
2024/01/02 07:31:54;;;;;;;0.20;0.10;;;;;;;;;;5030174;28;20120;-85
2024/01/02 07:34:20;;;;;;;0.20;0.10;;;;;;;;;;5014561;28;20044;-85
2024/01/02 07:36:49;;;;;;;0.20;0.10;;;;;;;;;;5024619;28;20082;-85
2024/01/02 07:39:21;;;;;;;0.20;0.10;;;;;;;;;;5045201;28;20035;-85
2024/01/02 07:41:54;;;;;;;0.20;0.00;;;;;;;;;;5024616;28;20060;-85
2024/01/02 07:44:21;;;;;;;0.20;0.10;;;;;;;;;;5026875;28;20033;-84
2024/01/02 07:46:47;;;;;;;0.20;0.05;;;;;;;;;;5007005;28;20043;-86
2024/01/02 07:49:13;;;;;;;0.20;0.10;;;;;;;;;;5012026;28;20128;-83
2024/01/02 07:51:39;;;;;;;0.20;0.00;;;;;;;;;;5025227;28;20505;-83
2024/01/02 07:54:05;;;;;;;0.20;0.00;;;;;;;;;;5004728;28;20093;-86
2024/01/02 07:56:33;;;;;;;0.20;0.10;;;;;;;;;;5010157;28;20158;-84
2024/01/02 07:58:59;;;;;;;0.20;0.10;;;;;;;;;;5004551;28;20167;-85
2024/01/02 08:01:25;;;;;;;0.20;0.10;;;;;;;;;;5016159;28;20087;-85
2024/01/02 08:03:51;;;;;;;0.20;0.00;;;;;;;;;;5019605;28;20041;-86
2024/01/02 08:06:17;;;;;;;0.20;0.10;;;;;;;;;;5008698;28;20039;-84
2024/01/02 08:08:43;;;;;;;0.20;0.08;;;;;;;;;;5008186;28;20116;-87
2024/01/02 08:11:09;;;;;;;0.20;0.10;;;;;;;;;;5012370;28;20042;-85
2024/01/02 08:13:35;;;;;;;0.20;0.00;;;;;;;;;;5009575;28;20112;-85
2024/01/02 08:16:04;;;;;;;0.20;0.00;;;;;;;;;;5025314;28;20040;-87
2024/01/02 08:18:30;;;;;;;0.20;0.00;;;;;;;;;;5014233;28;20496;-84
2024/01/02 08:20:57;;;;;;;0.20;0.10;;;;;;;;;;5029467;28;20049;-85
2024/01/02 08:23:24;;;;;;;0.20;0.00;;;;;;;;;;5012163;28;20394;-85
2024/01/02 08:25:54;;;;;;;0.20;0.10;;;;;;;;;;5008797;28;20561;-85
2024/01/02 08:28:20;;;;;;;0.20;0.00;;;;;;;;;;5010122;28;20032;-83
2024/01/02 08:30:46;;;;;;;0.20;0.10;;;;;;;;;;5009212;28;20065;-84
2024/01/02 08:33:12;;;;;;;0.20;0.00;;;;;;;;;;5037515;28;20124;-84
2024/01/02 08:35:38;;;;;;;0.20;0.10;;;;;;;;;;5013313;28;20043;-86
2024/01/02 08:38:04;;;;;;;0.20;0.10;;;;;;;;;;5024002;28;20030;-85
2024/01/02 08:40:30;;;;;;;0.20;0.10;;;;;;;;;;5013746;28;20059;-85
2024/01/02 08:42:56;;;;;;;0.20;0.08;;;;;;;;;;5029024;28;20059;-85
2024/01/02 08:45:25;;;;;;;0.63;0.60;;;;;;;;;;5026306;28;20103;-83
2024/01/02 08:47:51;;;;;;;0.20;0.10;;;;;;;;;;5026843;28;20052;-83
2024/01/02 08:50:17;;;;;;;1.85;0.32;;;;;;;;;;5016373;28;20069;-83
2024/01/02 08:52:47;;;;;;;0.20;0.05;;;;;;;;;;5014770;28;20048;-84
2024/01/02 08:55:13;;;;;;;0.20;0.10;;;;;;;;;;5014908;28;20048;-83
2024/01/02 08:57:39;;;;;;;0.20;0.03;;;;;;;;;;5027168;28;20028;-84
2024/01/02 09:00:07;;;;;;;0.20;0.10;;;;;;;;;;5023752;28;20161;-85
2024/01/02 09:02:33;;;;;;;0.20;0.00;;;;;;;;;;5011186;28;20041;-84
2024/01/02 09:05:02;;;;;;;0.20;0.20;;;;;;;;;;5044474;28;20391;-86
2024/01/02 09:07:28;;;;;;;0.20;0.10;;;;;;;;;;5027522;28;20138;-86
2024/01/02 09:09:56;;;;;;;0.20;0.00;;;;;;;;;;5009249;28;20044;-85
2024/01/02 09:12:24;;;;;;;0.20;0.10;;;;;;;;;;5028253;28;20044;-86
2024/01/02 09:14:50;;;;;;;0.20;0.10;;;;;;;;;;5012449;28;20445;-86
2024/01/02 09:17:16;;;;;;;0.20;0.10;;;;;;;;;;5013122;28;20047;-85
2024/01/02 09:19:44;;;;;;;1.58;0.65;;;;;;;;;;5028162;28;20092;-85
2024/01/02 09:22:10;;;;;;;0.20;0.00;;;;;;;;;;5029703;28;20041;-86
2024/01/02 09:24:36;;;;;;;0.20;0.00;;;;;;;;;;5028182;28;20033;-89
2024/01/02 09:27:05;;;;;;;0.20;0.05;;;;;;;;;;5009723;28;20117;-88
2024/01/02 09:29:31;;;;;;;0.20;0.10;;;;;;;;;;5029974;28;20112;-85
2024/01/02 09:32:00;;;;;;;0.20;0.00;;;;;;;;;;5006764;28;20037;-83
2024/01/02 09:34:29;;;;;;;0.20;0.05;;;;;;;;;;5044887;28;20037;-86
2024/01/02 09:36:55;;;;;;;0.20;0.10;;;;;;;;;;5025100;28;20524;-86
2024/01/02 09:39:25;;;;;;;0.20;0.10;;;;;;;;;;5014293;28;20041;-87
2024/01/02 09:42:10;;;;;;;0.20;0.10;;;;;;;;;;5033808;28;20032;-84
2024/01/02 09:44:55;;;;;;;0.20;0.00;;;;;;;;;;5005462;28;20036;-87
2024/01/02 09:47:21;;;;;;;0.20;0.10;;;;;;;;;;5025113;28;20464;-87
2024/01/02 09:49:47;;;;;;;0.20;0.00;;;;;;;;;;5012896;28;20694;-89
2024/01/02 09:52:52;;;;;;;0.20;0.00;;;;;;;;;;5007232;28;20160;-84
2024/01/02 09:55:25;;;;;;;0.20;0.10;;;;;;;;;;4954421;28;20062;-84
2024/01/02 09:58:12;;;;;;;0.20;0.00;;;;;;;;;;4972687;28;20138;-87
2024/01/02 10:00:47;;;;;;;0.20;0.00;;;;;;;;;;4988346;28;20060;-83
2024/01/02 10:03:46;;;;;;;0.20;0.10;;;;;;;;;;5013325;28;20126;-87
2024/01/02 10:06:27;;;;;;;0.20;0.03;;;;;;;;;;4994985;28;20060;-84
2024/01/02 10:09:09;;;;;;;0.20;0.00;;;;;;;;;;5026636;28;20044;-86
2024/01/02 10:11:42;;;;;;;0.20;0.00;;;;;;;;;;5038472;28;20041;-85
2024/01/02 10:14:22;;;;;;;0.20;0.00;;;;;;;;;;5012104;28;20047;-86
2024/01/02 10:17:00;;;;;;;0.20;0.10;;;;;;;;;;5003468;28;20409;-83
2024/01/02 10:19:34;;;;;;;0.20;0.03;;;;;;;;;;5023435;28;20033;-89
2024/01/02 10:22:33;;;;;;;0.20;0.00;;;;;;;;;;5004564;28;20210;-87
2024/01/02 10:25:02;;;;;;;0.20;0.00;;;;;;;;;;4984833;28;20080;-87
2024/01/02 10:27:34;;;;;;;0.20;0.00;;;;;;;;;;5011880;28;20409;-87
2024/01/02 10:30:08;;;;;;;0.20;0.10;;;;;;;;;;5025896;28;20045;-86
2024/01/02 10:32:54;;;;;;;0.20;0.00;;;;;;;;;;5013419;28;20339;-85
2024/01/02 10:35:32;;;;;;;0.28;0.22;;;;;;;;;;5025084;28;20045;-87
2024/01/02 10:38:08;;;;;;;0.20;0.00;;;;;;;;;;5027542;28;20088;-86
2024/01/02 10:40:35;;;;;;;0.20;0.00;;;;;;;;;;5027737;28;20033;-86
2024/01/02 10:43:01;;;;;;;0.20;0.10;;;;;;;;;;5032979;28;20073;-87
2024/01/02 10:45:30;;;;;;;0.20;0.00;;;;;;;;;;5020855;28;20064;-87
2024/01/02 10:48:12;;;;;;;0.20;0.08;;;;;;;;;;5030570;28;20037;-87
2024/01/02 10:50:53;;;;;;;0.20;0.03;;;;;;;;;;5016014;28;20038;-87
2024/01/02 10:53:34;;;;;;;0.20;0.10;;;;;;;;;;5025292;28;20036;-86
2024/01/02 10:56:17;;;;;;;0.20;0.00;;;;;;;;;;5029044;28;20335;-88
2024/01/02 10:59:16;;;;;;;0.20;0.10;;;;;;;;;;5029895;28;20041;-85
2024/01/02 11:01:46;;;;;;;0.40;0.38;;;;;;;;;;4992240;28;20116;-87
2024/01/02 11:04:18;;;;;;;0.20;0.00;;;;;;;;;;5048960;28;20076;-85
2024/01/02 11:06:48;;;;;;;0.20;0.10;;;;;;;;;;5029192;28;20037;-83
2024/01/02 11:09:26;;;;;;;0.20;0.10;;;;;;;;;;5015236;28;20053;-84
2024/01/02 11:11:54;;;;;;;0.20;0.10;;;;;;;;;;5015065;28;20460;-87
2024/01/02 11:14:21;;;;;;;0.20;0.10;;;;;;;;;;5018472;28;20049;-86
2024/01/02 11:16:50;;;;;;;0.20;0.00;;;;;;;;;;5014029;28;20056;-87
2024/01/02 11:19:38;;;;;;;1.63;0.75;;;;;;;;;;5030743;28;20060;-89
2024/01/02 11:22:09;;;;;;;0.20;0.00;;;;;;;;;;5044706;28;20080;-85
2024/01/02 11:24:40;;;;;;;0.20;0.00;;;;;;;;;;5031800;28;20048;-87
2024/01/02 11:27:07;;;;;;;0.20;0.10;;;;;;;;;;5013607;28;20051;-85
2024/01/02 11:29:43;;;;;;;0.20;0.00;;;;;;;;;;5015150;28;20179;-86
2024/01/02 11:32:16;;;;;;;0.20;0.10;;;;;;;;;;5015134;28;20037;-84
2024/01/02 11:34:49;;;;;;;0.20;0.10;;;;;;;;;;5032550;28;20044;-88
2024/01/02 11:37:37;;;;;;;0.20;0.00;;;;;;;;;;5016843;28;20025;-85
2024/01/02 11:40:03;;;;;;;0.20;0.10;;;;;;;;;;5027685;28;20131;-85
2024/01/02 11:42:47;;;;;;;0.20;0.00;;;;;;;;;;5013684;28;20089;-85
2024/01/02 11:45:23;;;;;;;0.20;0.00;;;;;;;;;;5048445;28;20105;-84
2024/01/02 11:48:01;;;;;;;0.20;0.00;;;;;;;;;;5018778;28;20047;-84
2024/01/02 11:50:44;;;;;;;1.25;1.17;;;;;;;;;;5026087;28;20051;-85
2024/01/02 11:53:10;;;;;;;;;;;;;;;;;;5018434;28;20057;-84
2024/01/02 11:55:36;;;;;;;0.20;0.10;;;;;;;;;;5014666;28;20025;-86
2024/01/02 11:58:08;;;;;;;0.30;0.20;;;;;;;;;;5022971;28;20060;-86
2024/01/02 12:00:53;;;;;;;0.20;0.00;;;;;;;;;;5012464;28;20412;-86
2024/01/02 12:03:28;;;;;;;0.20;0.00;;;;;;;;;;5016054;28;20769;-89
2024/01/02 12:05:58;;;;;;;0.20;0.20;;;;;;;;;;5015122;28;20414;-89
2024/01/02 12:08:27;;;;;;;0.20;0.00;;;;;;;;;;5014247;28;20355;-88
2024/01/02 12:10:56;;;;;;;0.20;0.05;;;;;;;;;;5018748;28;20055;-87
2024/01/02 12:13:31;;;;;;;0.20;0.00;;;;;;;;;;5032783;28;20044;-85
2024/01/02 12:16:03;;;;;;;0.20;0.00;;;;;;;;;;5031926;28;20107;-85
2024/01/02 12:18:47;;;;;;;0.20;0.08;;;;;;;;;;5023045;28;20037;-86
2024/01/02 12:21:17;;;;;;;0.20;0.00;;;;;;;;;;5021375;28;20079;-84
2024/01/02 12:24:06;;;;;;;0.20;0.00;;;;;;;;;;5018081;28;20072;-87
2024/01/02 12:26:35;;;;;;;0.20;0.10;;;;;;;;;;5035662;28;20059;-84
2024/01/02 12:29:06;;;;;;;0.20;0.10;;;;;;;;;;5035650;28;20060;-86
2024/01/02 12:32:13;;;;;;;;;;;;;;;;;;;;;
2024/01/02 12:34:48;;;;;;;0.43;0.13;;;;;;;;;;5130804;28;20102;-84
2024/01/02 12:37:16;;;;;;;0.20;0.10;;;;;;;;;;5132489;27;20040;-86
2024/01/02 12:39:48;;;;;;;0.20;0.10;;;;;;;;;;5114922;28;20079;-87
2024/01/02 12:42:18;;;;;;;0.20;0.00;;;;;;;;;;5137727;27;20040;-84
2024/01/02 12:44:53;;;;;;;0.20;0.00;;;;;;;;;;5114059;28;20118;-85
2024/01/02 12:50:36;;;;;;;0.20;0.00;;;;;;;;;;5112254;27;20043;-86
2024/01/02 12:53:10;;;;;;;0.20;0.10;;;;;;;;;;5112321;28;20063;-87
2024/01/02 12:55:57;;;;;;;;;;;;;;;;;;;;;
2024/01/02 12:58:47;;;;;;;;;;;;;;;;;;5118598;27;20043;-86
2024/01/02 13:01:16;;;;;;;0.20;0.10;;;;;;;;;;5101108;28;19919;-83
2024/01/02 13:03:58;;;;;;;0.20;0.10;;;;;;;;;;5115948;28;20032;-83
2024/01/02 13:06:30;;;;;;;0.20;0.00;;;;;;;;;;5116909;27;20051;-85
2024/01/02 13:08:56;;;;;;;0.20;0.10;;;;;;;;;;5106030;27;20059;-85
2024/01/02 13:15:04;;;;;;;0.20;0.10;;;;;;;;;;5114778;27;20039;-88
2024/01/02 13:17:50;;;;;;;0.20;0.00;;;;;;;;;;5119332;28;20077;-88
2024/01/02 13:37:25;;;;;;;0.20;0.00;;;;;;;;;;4904982;29;20044;-87
2024/01/02 13:39:58;;;;;;;0.30;0.15;;;;;;;;;;4922142;29;20063;-87
2024/01/02 13:43:04;;;;;;;0.20;0.10;;;;;;;;;;4952946;28;20095;-87
2024/01/02 13:46:20;;;;;;;0.20;0.10;;;;;;;;;;4890216;29;20053;-87
2024/01/02 13:49:04;;;;;;;0.20;0.03;;;;;;;;;;5008669;28;20044;-85
2024/01/02 13:52:01;;;;;;;0.82;0.47;;;;;;;;;;5043841;28;20026;-85
2024/01/02 14:05:45;;;;;;;;;;;;;;;;;;;;;
2024/01/02 14:08:34;;;;;;;0.20;0.00;;;;;;;;;;5017938;28;20068;-87
2024/01/02 14:11:07;;;;;;;0.20;0.00;;;;;;;;;;5000161;28;20386;-85
2024/01/02 14:13:45;;;;;;;0.20;0.08;;;;;;;;;;4998975;28;20045;-85
2024/01/02 14:16:23;;;;;;;0.20;0.00;;;;;;;;;;5003570;28;20030;-84
2024/01/02 14:18:52;;;;;;;0.20;0.03;;;;;;;;;;4998490;28;20452;-84
2024/01/02 14:21:20;;;;;;;0.20;0.10;;;;;;;;;;5001855;28;20042;-84
2024/01/02 14:23:49;;;;;;;0.20;0.00;;;;;;;;;;4997691;28;20054;-84
2024/01/02 14:26:26;;;;;;;0.20;0.00;;;;;;;;;;4996276;28;20065;-84
2024/01/02 14:28:59;;;;;;;0.20;0.10;;;;;;;;;;4997696;28;20383;-84
2024/01/02 14:31:47;;;;;;;0.20;0.10;;;;;;;;;;4999504;28;20103;-84
2024/01/02 14:34:23;;;;;;;;;;;;;;;;;;;;;
2024/01/02 14:36:50;;;;;;;0.20;0.10;;;;;;;;;;5014311;28;20048;-84
2024/01/02 14:39:37;;;;;;;0.20;0.00;;;;;;;;;;4996377;28;20128;-86
2024/01/02 14:42:14;;;;;;;0.20;0.10;;;;;;;;;;4995470;28;20048;-84
2024/01/02 14:44:55;;;;;;;0.20;0.10;;;;;;;;;;4999896;28;20050;-83
2024/01/02 14:47:40;;;;;;;0.20;0.10;;;;;;;;;;4998497;28;20042;-87
2024/01/02 14:50:07;;;;;;;0.20;0.00;;;;;;;;;;5014790;28;20052;-85
2024/01/02 14:52:39;;;;;;;0.20;0.00;;;;;;;;;;4996848;28;20022;-84
2024/01/02 14:55:11;;;;;;;0.20;0.10;;;;;;;;;;4997511;28;20034;-84
2024/01/02 14:57:39;;;;;;;0.20;0.10;;;;;;;;;;4993588;28;20053;-84
2024/01/02 15:00:10;;;;;;;0.20;0.10;;;;;;;;;;4997712;28;20454;-84
2024/01/02 15:02:55;;;;;;;0.20;0.00;;;;;;;;;;4999117;28;20045;-83
2024/01/02 15:05:30;;;;;;;0.20;0.10;;;;;;;;;;5011020;28;20035;-83
2024/01/02 15:08:08;;;;;;;0.20;0.00;;;;;;;;;;5003285;28;20042;-84
2024/01/02 15:11:01;;;;;;;0.20;0.10;;;;;;;;;;5002752;28;20045;-84
2024/01/02 15:13:31;;;;;;;0.20;0.10;;;;;;;;;;4981630;28;20046;-84
2024/01/02 15:15:57;;;;;;;0.20;0.10;;;;;;;;;;4991648;28;20037;-84
2024/01/02 15:18:41;;;;;;;0.20;0.10;;;;;;;;;;4997203;28;20037;-86
2024/01/02 15:21:19;;;;;;;0.20;0.00;;;;;;;;;;4980425;28;20042;-85
2024/01/02 15:24:08;;;;;;;0.20;0.10;;;;;;;;;;4980511;28;20034;-85
2024/01/02 15:26:54;;;;;;;0.20;0.00;;;;;;;;;;5000297;28;20030;-85
2024/01/02 15:29:30;;;;;;;0.20;0.05;;;;;;;;;;4980502;28;20284;-86
2024/01/02 15:32:00;;;;;;;0.20;0.10;;;;;;;;;;4996383;28;20269;-84
2024/01/02 15:34:46;;;;;;;0.20;0.00;;;;;;;;;;5002230;28;20037;-84
2024/01/02 15:37:25;;;;;;;0.20;0.10;;;;;;;;;;4998898;28;20049;-83
2024/01/02 15:40:08;;;;;;;0.20;0.05;;;;;;;;;;4998398;28;20065;-86
2024/01/02 15:42:41;;;;;;;0.20;0.08;;;;;;;;;;4997196;28;20101;-85
2024/01/02 15:45:15;;;;;;;0.20;0.10;;;;;;;;;;4998299;28;20042;-83
2024/01/02 15:47:50;;;;;;;0.20;0.00;;;;;;;;;;4978285;28;20042;-85
2024/01/02 15:50:21;;;;;;;0.20;0.00;;;;;;;;;;4995901;28;20409;-85